createdAt,value
2019-02-28T00:01:52.619Z,37.00
2019-02-28T00:04:21.971Z,36.70
2019-02-28T00:06:51.409Z,37.57
2019-02-28T00:09:20.790Z,38.87
2019-02-28T00:11:50.379Z,38.50
2019-02-28T00:14:19.921Z,38.80
2019-02-28T00:16:49.483Z,38.57
2019-02-28T00:19:21.046Z,39.20
2019-02-28T00:21:50.172Z,40.90
2019-02-28T00:24:21.355Z,41.47
2019-02-28T00:26:52.606Z,42.87
2019-02-28T00:29:22.327Z,42.53
2019-02-28T00:31:51.660Z,44.47
2019-02-28T00:34:22.178Z,42.00
2019-02-28T00:36:53.410Z,42.40
2019-02-28T00:39:23.466Z,43.63
2019-02-28T00:41:54.034Z,43.37
2019-02-28T00:44:23.560Z,44.77
2019-02-28T00:46:52.911Z,43.93
2019-02-28T00:49:24.463Z,44.37
2019-02-28T00:51:56.486Z,44.13
2019-02-28T00:54:25.850Z,46.07
2019-02-28T00:56:56.526Z,46.37
2019-02-28T00:59:26.829Z,44.40
2019-02-28T01:01:57.338Z,43.77
2019-02-28T01:04:30.017Z,43.00
2019-02-28T01:06:59.709Z,46.60
2019-02-28T01:09:31.007Z,46.70
2019-02-28T01:12:00.939Z,46.53
2019-02-28T01:14:32.371Z,47.13
2019-02-28T01:17:03.627Z,48.17
2019-02-28T01:19:35.010Z,46.70
2019-02-28T01:22:04.407Z,46.73
2019-02-28T01:24:34.876Z,44.50
2019-02-28T01:27:04.865Z,44.83
2019-02-28T01:29:35.672Z,42.67
2019-02-28T01:32:05.509Z,41.73
2019-02-28T01:34:35.260Z,42.90
2019-02-28T01:37:04.620Z,41.27
2019-02-28T01:39:33.997Z,41.63
2019-02-28T01:42:03.471Z,37.80
2019-02-28T01:44:35.790Z,40.33
2019-02-28T01:47:05.134Z,41.33
2019-02-28T01:49:34.706Z,43.80
2019-02-28T01:52:09.820Z,42.67
2019-02-28T01:54:36.529Z,45.00
2019-02-28T01:57:08.925Z,45.27
2019-02-28T01:59:37.201Z,45.43
2019-02-28T02:02:07.039Z,43.50
2019-02-28T02:04:36.722Z,44.80
2019-02-28T02:07:06.186Z,46.17
2019-02-28T02:09:35.620Z,44.70
2019-02-28T02:12:05.037Z,47.53
2019-02-28T02:14:34.504Z,44.97
2019-02-28T02:17:05.903Z,46.00
2019-02-28T02:19:35.403Z,48.67
2019-02-28T02:22:09.129Z,46.13
2019-02-28T02:24:36.157Z,48.47
2019-02-28T02:27:05.851Z,48.73
2019-02-28T02:29:36.301Z,47.83
2019-02-28T02:32:06.519Z,48.83
2019-02-28T02:34:35.964Z,49.40
2019-02-28T02:37:05.439Z,49.60
2019-02-28T02:39:36.088Z,47.73
2019-02-28T02:42:10.050Z,47.30
2019-02-28T02:44:38.289Z,49.80
2019-02-28T02:47:07.771Z,46.37
2019-02-28T02:49:37.118Z,49.40
2019-02-28T02:52:06.586Z,49.73
2019-02-28T02:54:36.143Z,52.20
2019-02-28T02:57:05.589Z,50.57
2019-02-28T02:59:38.907Z,52.07
2019-02-28T03:02:08.155Z,54.13
2019-02-28T03:04:39.233Z,55.50
2019-02-28T03:07:11.656Z,55.53
2019-02-28T03:09:43.353Z,56.77
2019-02-28T03:12:13.632Z,57.83
2019-02-28T03:14:44.252Z,59.17
2019-02-28T03:17:13.750Z,59.07
2019-02-28T03:19:44.503Z,59.87
2019-02-28T03:22:15.374Z,58.30
2019-02-28T03:24:50.646Z,58.33
2019-02-28T03:27:19.047Z,60.37
2019-02-28T03:29:48.299Z,61.30
2019-02-28T03:32:17.749Z,61.77
2019-02-28T03:34:55.306Z,62.27
2019-02-28T03:37:18.530Z,62.97
2019-02-28T03:39:48.092Z,61.73
2019-02-28T03:42:18.833Z,62.93
2019-02-28T03:44:49.408Z,64.93
2019-02-28T03:47:22.774Z,62.50
2019-02-28T03:49:50.361Z,65.10
2019-02-28T03:52:21.269Z,64.30
2019-02-28T03:54:50.727Z,64.77
2019-02-28T03:57:20.186Z,62.53
2019-02-28T03:59:55.429Z,62.53
2019-02-28T04:02:22.955Z,64.77
2019-02-28T04:04:52.615Z,64.00
2019-02-28T04:07:24.146Z,64.93
2019-02-28T04:09:53.609Z,65.57
2019-02-28T04:12:23.278Z,66.13
2019-02-28T04:14:52.993Z,66.40
2019-02-28T04:17:26.296Z,65.13
2019-02-28T04:20:00.101Z,63.60
2019-02-28T04:22:27.530Z,64.13
2019-02-28T04:24:57.077Z,68.40
2019-02-28T04:27:28.501Z,63.03
2019-02-28T04:29:57.937Z,63.47
2019-02-28T04:32:27.952Z,68.70
2019-02-28T04:34:57.555Z,63.70
2019-02-28T04:37:28.570Z,63.90
2019-02-28T04:39:57.998Z,64.83
2019-02-28T04:42:27.583Z,62.00
2019-02-28T04:44:57.120Z,62.40
2019-02-28T04:47:26.645Z,61.47
2019-02-28T04:49:57.723Z,59.33
2019-02-28T04:52:28.767Z,59.53
2019-02-28T04:55:02.840Z,61.27
2019-02-28T04:57:31.091Z,61.03
2019-02-28T05:00:01.610Z,60.10
2019-02-28T05:02:31.095Z,58.80
2019-02-28T05:05:19.773Z,58.87
2019-02-28T05:07:52.366Z,59.63
2019-02-28T05:10:23.000Z,60.77
2019-02-28T05:12:52.587Z,62.33
2019-02-28T05:15:22.058Z,59.63
2019-02-28T05:17:53.111Z,60.70
2019-02-28T05:20:24.444Z,60.63
2019-02-28T05:22:53.935Z,63.10
2019-02-28T05:25:23.326Z,61.63
2019-02-28T05:27:53.882Z,61.77
2019-02-28T05:30:24.980Z,61.37
2019-02-28T05:32:54.411Z,61.20
2019-02-28T05:35:26.615Z,61.80
2019-02-28T05:37:56.495Z,59.53
2019-02-28T05:40:27.447Z,63.67
2019-02-28T05:42:58.512Z,61.03
2019-02-28T05:45:28.036Z,61.43
2019-02-28T05:47:57.466Z,62.90
2019-02-28T05:50:27.028Z,62.47
2019-02-28T05:52:56.512Z,59.90
2019-02-28T05:55:25.967Z,59.07
2019-02-28T05:57:55.423Z,63.53
2019-02-28T06:00:25.970Z,64.07
2019-02-28T06:02:58.081Z,62.00
2019-02-28T06:05:27.083Z,65.97
2019-02-28T06:07:56.704Z,68.97
2019-02-28T06:10:26.746Z,70.00
2019-02-28T06:12:57.280Z,69.10
2019-02-28T06:15:29.037Z,66.97
2019-02-28T06:17:58.991Z,67.77
2019-02-28T06:20:29.665Z,69.13
2019-02-28T06:22:59.064Z,68.13
2019-02-28T06:25:28.823Z,69.10
2019-02-28T06:27:58.395Z,66.27
2019-02-28T06:30:28.010Z,68.10
2019-02-28T06:32:59.092Z,66.17
2019-02-28T06:35:28.656Z,70.23
2019-02-28T06:38:01.189Z,66.77
2019-02-28T06:40:33.132Z,64.40
2019-02-28T06:43:01.720Z,64.73
2019-02-28T06:45:31.305Z,64.43
2019-02-28T06:48:00.882Z,63.03
2019-02-28T06:50:30.350Z,61.77
2019-02-28T06:52:59.958Z,60.57
2019-02-28T06:55:29.469Z,65.10
2019-02-28T06:57:59.981Z,62.07
2019-02-28T07:00:30.835Z,63.73
2019-02-28T07:03:03.288Z,58.70
2019-02-28T07:05:31.689Z,59.80
2019-02-28T07:08:02.875Z,59.37
2019-02-28T07:10:32.397Z,63.27
2019-02-28T07:13:04.538Z,62.20
2019-02-28T07:15:34.145Z,64.00
2019-02-28T07:18:04.847Z,58.07
2019-02-28T07:20:36.133Z,63.83
2019-02-28T07:23:05.973Z,65.13
2019-02-28T07:25:35.517Z,62.97
2019-02-28T07:28:05.030Z,60.80
2019-02-28T07:30:34.454Z,63.03
2019-02-28T07:33:09.528Z,66.00
2019-02-28T07:35:36.816Z,62.03
2019-02-28T07:38:06.349Z,63.10
2019-02-28T07:40:37.704Z,61.20
2019-02-28T07:43:12.037Z,60.63
2019-02-28T07:45:40.862Z,64.73
2019-02-28T07:48:10.332Z,58.90
2019-02-28T07:50:39.824Z,61.03
2019-02-28T07:53:09.845Z,60.37
2019-02-28T07:55:39.343Z,59.17
2019-02-28T07:58:08.977Z,57.43
2019-02-28T08:00:38.640Z,57.77
2019-02-28T08:03:11.289Z,56.73
2019-02-28T08:05:40.368Z,57.77
2019-02-28T08:08:09.878Z,57.10
2019-02-28T08:10:40.753Z,58.30
2019-02-28T08:13:10.458Z,54.07
2019-02-28T08:15:39.975Z,55.50
2019-02-28T08:18:09.441Z,54.50
2019-02-28T08:20:38.914Z,52.57
2019-02-28T08:23:09.504Z,55.87
2019-02-28T08:25:39.707Z,55.00
2019-02-28T08:28:10.077Z,54.80
2019-02-28T08:30:40.810Z,55.23
2019-02-28T08:33:10.311Z,53.57
2019-02-28T08:35:40.097Z,55.57
2019-02-28T08:38:10.243Z,62.45
2019-02-28T08:40:39.698Z,56.27
2019-02-28T08:43:10.485Z,53.80
2019-02-28T08:45:41.377Z,55.43
2019-02-28T08:48:12.649Z,55.30
2019-02-28T08:50:43.263Z,55.63
2019-02-28T08:53:15.545Z,54.27
2019-02-28T08:55:44.994Z,57.40
2019-02-28T08:58:14.504Z,56.33
2019-02-28T09:00:44.207Z,55.47
2019-02-28T09:03:14.241Z,52.60
2019-02-28T09:05:43.736Z,51.20
2019-02-28T09:08:13.399Z,54.17
2019-02-28T09:10:43.648Z,54.40
2019-02-28T09:13:14.608Z,55.53
2019-02-28T09:15:44.498Z,53.43
2019-02-28T09:18:13.958Z,35.33
2019-02-28T09:20:45.278Z,50.20
2019-02-28T09:23:14.943Z,45.37
2019-02-28T09:25:44.459Z,46.37
2019-02-28T09:28:15.011Z,42.03
2019-02-28T09:30:44.420Z,43.33
2019-02-28T09:33:13.885Z,40.27
2019-02-28T09:35:46.344Z,43.00
2019-02-28T09:38:16.353Z,42.97
2019-02-28T09:40:45.957Z,42.10
2019-02-28T09:43:16.699Z,40.07
2019-02-28T09:45:47.288Z,41.63
2019-02-28T09:48:16.852Z,43.30
2019-02-28T09:50:46.729Z,39.10
2019-02-28T09:53:16.762Z,40.40
2019-02-28T09:55:46.413Z,39.23
2019-02-28T09:58:15.860Z,37.20
2019-02-28T10:00:46.543Z,35.27
2019-02-28T10:03:19.608Z,35.23
2019-02-28T10:05:49.120Z,39.03
2019-02-28T10:08:18.715Z,39.73
2019-02-28T10:10:52.483Z,37.13
2019-02-28T10:13:21.472Z,37.67
2019-02-28T10:15:52.717Z,37.87
2019-02-28T10:18:21.890Z,39.93
2019-02-28T10:20:51.451Z,40.53
2019-02-28T10:23:21.517Z,40.67
2019-02-28T10:25:51.644Z,40.43
2019-02-28T10:28:21.123Z,39.20
2019-02-28T10:30:50.893Z,41.57
2019-02-28T10:33:21.970Z,38.20
2019-02-28T10:35:51.698Z,38.67
2019-02-28T10:38:21.210Z,40.27
2019-02-28T10:40:52.367Z,45.97
2019-02-28T10:43:24.818Z,41.03
2019-02-28T10:45:56.972Z,45.90
2019-02-28T10:48:26.461Z,45.10
2019-02-28T10:50:57.548Z,45.30
2019-02-28T10:53:29.564Z,49.47
2019-02-28T10:55:59.213Z,46.13
2019-02-28T10:58:28.668Z,41.57
2019-02-28T11:00:58.304Z,44.13
2019-02-28T11:03:31.768Z,49.73
2019-02-28T11:06:00.486Z,49.83
2019-02-28T11:08:30.040Z,49.13
2019-02-28T11:11:01.192Z,51.23
2019-02-28T11:13:32.190Z,50.13
2019-02-28T11:16:02.872Z,45.47
2019-02-28T11:18:33.477Z,47.43
2019-02-28T11:21:02.249Z,39.57
2019-02-28T11:23:31.092Z,23.57
2019-02-28T11:26:02.425Z,30.67
2019-02-28T11:28:31.958Z,37.47
2019-02-28T11:31:01.488Z,34.17
2019-02-28T11:33:31.074Z,22.93
2019-02-28T11:36:00.752Z,31.97
2019-02-28T11:38:30.398Z,31.73
2019-02-28T11:41:01.084Z,27.67
2019-02-28T11:43:37.558Z,29.37
2019-02-28T11:46:04.917Z,30.73
2019-02-28T11:48:34.483Z,21.33
2019-02-28T11:51:03.972Z,28.07
2019-02-28T11:53:39.246Z,27.83
2019-02-28T11:56:05.074Z,23.70
2019-02-28T11:58:34.525Z,21.60
2019-02-28T12:01:10.031Z,25.67
2019-02-28T12:03:36.597Z,25.30
2019-02-28T12:06:06.884Z,21.03
2019-02-28T12:08:36.786Z,25.10
2019-02-28T12:11:06.399Z,24.70
2019-02-28T12:13:35.935Z,21.27
2019-02-28T12:16:05.673Z,24.43
2019-02-28T12:18:39.750Z,23.83
2019-02-28T12:21:06.899Z,22.43
2019-02-28T12:23:36.401Z,24.57
2019-02-28T12:26:05.838Z,22.90
2019-02-28T12:28:38.226Z,21.53
2019-02-28T12:31:08.093Z,21.43
2019-02-28T12:33:37.620Z,22.47
2019-02-28T12:36:07.112Z,21.67
2019-02-28T12:38:37.940Z,21.30
2019-02-28T12:41:07.408Z,22.33
2019-02-28T12:43:40.591Z,20.48
2019-02-28T12:46:09.697Z,23.00
2019-02-28T12:48:39.269Z,22.63
2019-02-28T12:51:08.727Z,23.27
2019-02-28T12:53:38.276Z,23.73
2019-02-28T12:56:11.219Z,21.67
2019-02-28T12:58:41.742Z,21.60
2019-02-28T13:01:11.620Z,21.70
2019-02-28T13:03:41.053Z,19.20
2019-02-28T13:06:11.661Z,20.20
2019-02-28T13:08:41.727Z,20.27
2019-02-28T13:11:11.939Z,14.40
2019-02-28T13:13:42.597Z,20.63
2019-02-28T13:16:12.163Z,21.07
2019-02-28T13:18:43.653Z,17.80
2019-02-28T13:21:13.302Z,18.23
2019-02-28T13:23:43.261Z,20.37
2019-02-28T13:26:12.849Z,19.50
2019-02-28T13:28:42.489Z,17.43
2019-02-28T13:31:12.181Z,19.13
2019-02-28T13:33:42.242Z,19.43
2019-02-28T13:36:12.987Z,18.77
2019-02-28T13:38:43.761Z,18.50
2019-02-28T13:41:18.000Z,17.77
2019-02-28T13:43:44.967Z,16.80
2019-02-28T13:46:14.486Z,15.40
2019-02-28T13:48:43.876Z,16.20
2019-02-28T13:51:13.533Z,15.87
2019-02-28T13:53:43.081Z,16.80
2019-02-28T13:56:12.626Z,16.60
2019-02-28T13:58:42.066Z,16.43
2019-02-28T14:01:11.909Z,16.40
2019-02-28T14:03:42.235Z,14.90
2019-02-28T14:06:18.704Z,15.10
2019-02-28T14:08:46.412Z,16.63
2019-02-28T14:11:17.372Z,15.87
2019-02-28T14:13:48.599Z,15.23
2019-02-28T14:16:18.097Z,16.80
2019-02-28T14:18:48.000Z,16.93
2019-02-28T14:21:17.574Z,17.33
2019-02-28T14:23:47.140Z,16.27
2019-02-28T14:26:16.622Z,15.43
2019-02-28T14:28:46.159Z,15.17
2019-02-28T14:31:17.022Z,14.00
2019-02-28T14:33:48.014Z,13.17
2019-02-28T14:36:17.732Z,15.20
2019-02-28T14:38:47.185Z,14.97
2019-02-28T14:41:18.228Z,13.83
2019-02-28T14:43:47.833Z,13.00
2019-02-28T14:46:19.130Z,14.97
2019-02-28T14:48:48.674Z,15.40
2019-02-28T14:51:21.418Z,14.10
2019-02-28T14:53:52.561Z,13.77
2019-02-28T14:56:23.320Z,13.73
2019-02-28T14:58:54.469Z,13.33
2019-02-28T15:01:24.105Z,11.70
2019-02-28T15:03:53.558Z,12.77
2019-02-28T15:06:23.212Z,10.57
2019-02-28T15:08:54.592Z,10.73
2019-02-28T15:11:24.998Z,10.37
2019-02-28T15:13:54.440Z,11.53
2019-02-28T15:16:26.578Z,11.63
2019-02-28T15:18:55.490Z,11.20
2019-02-28T15:21:25.262Z,10.67
2019-02-28T15:23:55.929Z,11.83
2019-02-28T15:26:29.519Z,11.30
2019-02-28T15:28:57.996Z,11.33
2019-02-28T15:31:27.541Z,9.80
2019-02-28T15:33:57.071Z,11.07
2019-02-28T15:36:26.829Z,11.77
2019-02-28T15:38:56.297Z,10.83
2019-02-28T15:41:26.060Z,14.65
2019-02-28T15:43:55.852Z,12.17
2019-02-28T15:46:25.228Z,12.40
2019-02-28T15:48:54.662Z,12.47
2019-02-28T15:51:29.472Z,11.27
2019-02-28T15:53:57.299Z,12.13
2019-02-28T15:56:26.884Z,12.27
2019-02-28T15:58:57.894Z,11.73
2019-02-28T16:01:28.610Z,11.40
2019-02-28T16:03:57.198Z,11.70
2019-02-28T16:06:25.999Z,12.97
2019-02-28T16:08:55.393Z,13.50
2019-02-28T16:11:26.301Z,12.53
2019-02-28T16:13:57.485Z,11.90
2019-02-28T16:16:26.488Z,12.67
2019-02-28T16:18:55.253Z,14.00
2019-02-28T16:21:25.499Z,12.30
2019-02-28T16:23:54.320Z,13.07
2019-02-28T16:26:23.055Z,12.97
2019-02-28T16:28:51.895Z,12.47
2019-02-28T16:31:20.615Z,13.57
2019-02-28T16:33:49.455Z,13.87
2019-02-28T16:36:18.474Z,13.33
2019-02-28T16:38:47.287Z,13.50
2019-02-28T16:41:16.023Z,15.60
2019-02-28T16:43:44.966Z,16.23
2019-02-28T16:46:15.468Z,14.53
2019-02-28T16:48:45.325Z,15.23
2019-02-28T16:51:14.409Z,15.37
2019-02-28T16:53:43.443Z,15.87
2019-02-28T16:56:12.294Z,15.23
2019-02-28T16:58:41.151Z,14.83
2019-02-28T17:01:09.931Z,16.80
2019-02-28T17:03:41.751Z,14.93
2019-02-28T17:06:09.658Z,15.27
2019-02-28T17:09:03.219Z,15.60
2019-02-28T17:11:32.084Z,14.77
2019-02-28T17:14:10.245Z,14.07
2019-02-28T17:16:51.503Z,14.70
2019-02-28T17:19:20.458Z,15.97
2019-02-28T17:21:52.485Z,14.70
2019-02-28T17:24:20.609Z,14.90
2019-02-28T17:27:23.355Z,16.73
2019-02-28T17:30:00.554Z,15.77
2019-02-28T17:32:31.335Z,15.87
2019-02-28T17:35:00.347Z,17.57
2019-02-28T17:37:29.476Z,18.20
2019-02-28T17:39:58.641Z,18.50
2019-02-28T17:42:27.860Z,19.93
2019-02-28T17:45:16.461Z,19.23
2019-02-28T17:48:22.581Z,21.07
2019-02-28T17:51:28.507Z,20.73
2019-02-28T17:54:32.619Z,22.77
2019-02-28T17:57:26.133Z,26.93
2019-02-28T18:00:36.124Z,29.73
2019-02-28T18:03:44.956Z,29.93
2019-02-28T18:07:04.021Z,33.77
2019-02-28T18:10:36.143Z,34.03
2019-02-28T18:14:01.096Z,31.30
2019-02-28T18:17:01.350Z,30.33
2019-02-28T18:19:46.102Z,30.63
2019-02-28T18:22:51.990Z,33.47
2019-02-28T18:25:34.686Z,31.60
2019-02-28T18:28:36.484Z,33.00
2019-02-28T18:31:14.013Z,33.37
2019-02-28T18:33:55.782Z,30.77
2019-02-28T18:36:25.999Z,31.23
2019-02-28T18:38:55.158Z,30.47
2019-02-28T18:41:24.929Z,31.57
2019-02-28T18:44:14.454Z,31.23
2019-02-28T18:46:43.758Z,30.47
2019-02-28T18:49:13.268Z,31.43
2019-02-28T18:51:42.774Z,30.67
2019-02-28T18:54:11.978Z,33.97
2019-02-28T18:56:41.194Z,36.00
2019-02-28T18:59:10.465Z,34.27
2019-02-28T19:01:39.858Z,42.10
2019-02-28T19:04:09.091Z,43.93
2019-02-28T19:06:38.351Z,66.33
2019-02-28T19:09:26.688Z,73.63
2019-02-28T19:11:56.010Z,82.43
2019-02-28T19:14:25.181Z,90.10
2019-02-28T19:16:54.504Z,89.50
2019-02-28T19:19:23.791Z,89.50
2019-02-28T19:21:53.065Z,96.50
2019-02-28T19:24:22.328Z,98.47
2019-02-28T19:26:51.342Z,93.87
2019-02-28T19:29:20.472Z,96.80
2019-02-28T19:31:49.768Z,95.90
2019-02-28T19:34:18.990Z,95.63
2019-02-28T19:36:48.310Z,93.47
2019-02-28T19:39:17.701Z,90.40
2019-02-28T19:41:46.562Z,89.20
2019-02-28T19:44:15.413Z,86.53
2019-02-28T19:46:44.390Z,85.50
2019-02-28T19:49:13.315Z,87.80
2019-02-28T19:51:42.298Z,82.87
2019-02-28T19:54:11.530Z,87.33
2019-02-28T19:56:40.744Z,83.63
2019-02-28T19:59:09.845Z,81.33
2019-02-28T20:01:39.188Z,83.10
2019-02-28T20:04:08.417Z,80.63
2019-02-28T20:06:37.367Z,83.10
2019-02-28T20:09:07.693Z,80.13
2019-02-28T20:11:36.470Z,79.67
2019-02-28T20:14:05.306Z,76.30
2019-02-28T20:16:34.398Z,71.97
2019-02-28T20:19:03.364Z,71.30
2019-02-28T20:21:32.716Z,63.87
2019-02-28T20:24:01.896Z,64.73
2019-02-28T20:26:31.804Z,62.60
2019-02-28T20:29:00.772Z,64.33
2019-02-28T20:31:29.843Z,63.13
2019-02-28T20:33:58.619Z,61.30
2019-02-28T20:36:27.605Z,64.23
2019-02-28T20:38:56.644Z,63.67
2019-02-28T20:41:25.454Z,66.20
2019-02-28T20:43:54.180Z,63.33
2019-02-28T20:46:22.977Z,64.00
2019-02-28T20:48:51.807Z,64.40
2019-02-28T20:51:20.607Z,64.90
2019-02-28T20:53:49.590Z,66.20
2019-02-28T20:56:18.420Z,64.53
2019-02-28T20:58:47.255Z,65.30
2019-02-28T21:01:16.450Z,66.90
2019-02-28T21:03:45.194Z,68.93
2019-02-28T21:06:13.969Z,71.20
2019-02-28T21:08:42.859Z,78.37
2019-02-28T21:11:11.732Z,79.60
2019-02-28T21:13:40.561Z,83.80
2019-02-28T21:16:09.459Z,91.70
2019-02-28T21:18:38.321Z,90.57
2019-02-28T21:21:07.163Z,92.70
2019-02-28T21:23:36.006Z,92.57
2019-02-28T21:26:04.777Z,91.80
2019-02-28T21:28:33.776Z,87.30
2019-02-28T21:31:02.611Z,94.93
2019-02-28T21:33:31.340Z,93.23
2019-02-28T21:36:00.137Z,94.97
2019-02-28T21:38:29.030Z,84.40
2019-02-28T21:40:57.785Z,82.17
2019-02-28T21:43:26.572Z,78.77
2019-02-28T21:45:55.304Z,69.10
2019-02-28T21:48:24.131Z,62.43
2019-02-28T21:50:52.890Z,57.00
2019-02-28T21:53:21.790Z,59.37
2019-02-28T21:55:50.610Z,54.80
2019-02-28T21:58:19.366Z,55.23
2019-02-28T22:00:48.535Z,59.20
2019-02-28T22:03:17.302Z,55.07
2019-02-28T22:05:46.080Z,61.43
2019-02-28T22:08:14.940Z,53.37
2019-02-28T22:10:43.788Z,52.13
2019-02-28T22:13:12.533Z,54.80
2019-02-28T22:15:41.365Z,55.73
2019-02-28T22:18:10.185Z,54.10
2019-02-28T22:20:38.966Z,54.17
2019-02-28T22:23:07.961Z,54.87
2019-02-28T22:25:36.798Z,54.07
2019-02-28T22:28:05.637Z,54.93
2019-02-28T22:31:02.446Z,51.00
2019-02-28T22:33:42.164Z,49.73
2019-02-28T22:36:13.112Z,43.23
2019-02-28T22:38:41.947Z,37.87
2019-02-28T22:41:10.783Z,37.70
2019-02-28T22:43:39.881Z,36.87
2019-02-28T22:46:08.700Z,34.50
2019-02-28T22:48:37.434Z,38.77
2019-02-28T22:51:06.321Z,40.93
2019-02-28T22:53:35.123Z,48.27
2019-02-28T22:56:03.924Z,47.37
2019-02-28T22:58:32.709Z,49.07
2019-02-28T23:01:05.374Z,49.20
2019-02-28T23:03:34.365Z,46.67
2019-02-28T23:06:03.326Z,43.90
2019-02-28T23:08:32.174Z,41.67
2019-02-28T23:11:00.996Z,42.93
2019-02-28T23:13:29.890Z,44.90
2019-02-28T23:15:58.626Z,45.33
2019-02-28T23:18:27.443Z,48.13
2019-02-28T23:20:56.338Z,49.17
2019-02-28T23:23:25.049Z,39.37
2019-02-28T23:25:53.804Z,35.40
2019-02-28T23:28:33.151Z,36.20
2019-02-28T23:31:07.884Z,39.03
2019-02-28T23:33:36.660Z,35.30
2019-02-28T23:36:05.523Z,35.70
2019-02-28T23:38:34.345Z,33.90
2019-02-28T23:41:03.704Z,34.80
2019-02-28T23:43:32.503Z,36.03
2019-02-28T23:46:01.358Z,30.93
2019-02-28T23:48:30.120Z,32.07
2019-02-28T23:50:58.883Z,28.97
2019-02-28T23:53:27.645Z,30.97
2019-02-28T23:55:56.478Z,30.33
2019-02-28T23:58:25.285Z,32.17
